sensor_id;sensor_type;location;lat;lon;timestamp;temperature;humidity
47576;DHT22;33304;52.456;13.328;2023-04-24T00:00:54;12.60;34.60
47576;DHT22;33304;52.456;13.328;2023-04-24T00:03:24;12.50;35.00
47576;DHT22;33304;52.456;13.328;2023-04-24T00:05:51;12.60;34.80
47576;DHT22;33304;52.456;13.328;2023-04-24T00:08:18;12.50;35.40
47576;DHT22;33304;52.456;13.328;2023-04-24T00:10:46;12.50;35.70
47576;DHT22;33304;52.456;13.328;2023-04-24T00:13:13;12.50;36.20
47576;DHT22;33304;52.456;13.328;2023-04-24T00:15:40;12.30;36.30
47576;DHT22;33304;52.456;13.328;2023-04-24T00:18:07;12.30;37.00
47576;DHT22;33304;52.456;13.328;2023-04-24T00:20:36;12.40;37.20
47576;DHT22;33304;52.456;13.328;2023-04-24T00:23:03;12.30;37.40
47576;DHT22;33304;52.456;13.328;2023-04-24T00:25:30;12.40;37.70
47576;DHT22;33304;52.456;13.328;2023-04-24T00:27:57;12.40;37.90
47576;DHT22;33304;52.456;13.328;2023-04-24T00:30:24;12.40;38.10
47576;DHT22;33304;52.456;13.328;2023-04-24T00:32:51;12.40;38.50
47576;DHT22;33304;52.456;13.328;2023-04-24T00:35:19;12.40;38.90
47576;DHT22;33304;52.456;13.328;2023-04-24T00:37:48;12.30;38.90
47576;DHT22;33304;52.456;13.328;2023-04-24T00:40:15;12.30;39.20
47576;DHT22;33304;52.456;13.328;2023-04-24T00:42:43;12.30;40.00
47576;DHT22;33304;52.456;13.328;2023-04-24T00:45:11;12.30;40.50
47576;DHT22;33304;52.456;13.328;2023-04-24T00:47:39;12.40;39.70
47576;DHT22;33304;52.456;13.328;2023-04-24T00:50:08;12.40;39.90
47576;DHT22;33304;52.456;13.328;2023-04-24T00:52:35;12.40;40.10
47576;DHT22;33304;52.456;13.328;2023-04-24T00:55:05;12.40;40.30
47576;DHT22;33304;52.456;13.328;2023-04-24T00:57:32;12.40;40.60
47576;DHT22;33304;52.456;13.328;2023-04-24T01:00:00;12.40;40.80
47576;DHT22;33304;52.456;13.328;2023-04-24T01:02:27;12.30;41.60
47576;DHT22;33304;52.456;13.328;2023-04-24T01:04:55;12.20;42.80
47576;DHT22;33304;52.456;13.328;2023-04-24T01:07:22;12.20;43.30
47576;DHT22;33304;52.456;13.328;2023-04-24T01:09:51;12.10;43.30
47576;DHT22;33304;52.456;13.328;2023-04-24T01:12:19;12.00;44.80
47576;DHT22;33304;52.456;13.328;2023-04-24T01:14:46;11.90;44.90
47576;DHT22;33304;52.456;13.328;2023-04-24T01:17:15;11.80;44.80
47576;DHT22;33304;52.456;13.328;2023-04-24T01:19:42;11.90;44.90
47576;DHT22;33304;52.456;13.328;2023-04-24T01:22:13;12.00;45.00
47576;DHT22;33304;52.456;13.328;2023-04-24T01:24:40;12.10;45.10
47576;DHT22;33304;52.456;13.328;2023-04-24T01:27:09;12.10;45.10
47576;DHT22;33304;52.456;13.328;2023-04-24T01:29:37;12.10;45.10
47576;DHT22;33304;52.456;13.328;2023-04-24T01:32:05;12.00;45.00
47576;DHT22;33304;52.456;13.328;2023-04-24T01:34:32;12.00;45.00
47576;DHT22;33304;52.456;13.328;2023-04-24T01:37:00;11.90;45.80
47576;DHT22;33304;52.456;13.328;2023-04-24T01:39:29;12.00;46.00
47576;DHT22;33304;52.456;13.328;2023-04-24T01:41:56;11.70;47.60
47576;DHT22;33304;52.456;13.328;2023-04-24T01:44:23;11.80;48.30
47576;DHT22;33304;52.456;13.328;2023-04-24T01:46:51;11.80;47.80
47576;DHT22;33304;52.456;13.328;2023-04-24T01:49:20;11.80;47.70
47576;DHT22;33304;52.456;13.328;2023-04-24T01:51:47;11.80;48.30
47576;DHT22;33304;52.456;13.328;2023-04-24T01:54:14;11.80;48.10
47576;DHT22;33304;52.456;13.328;2023-04-24T01:56:43;11.70;48.70
47576;DHT22;33304;52.456;13.328;2023-04-24T01:59:11;11.70;49.10
47576;DHT22;33304;52.456;13.328;2023-04-24T02:01:39;11.60;49.00
47576;DHT22;33304;52.456;13.328;2023-04-24T02:04:07;11.60;50.60
47576;DHT22;33304;52.456;13.328;2023-04-24T02:06:35;11.60;50.30
47576;DHT22;33304;52.456;13.328;2023-04-24T02:09:02;11.60;50.30
47576;DHT22;33304;52.456;13.328;2023-04-24T02:11:30;11.60;50.70
47576;DHT22;33304;52.456;13.328;2023-04-24T02:13:58;11.60;50.40
47576;DHT22;33304;52.456;13.328;2023-04-24T02:16:26;11.60;50.60
47576;DHT22;33304;52.456;13.328;2023-04-24T02:18:53;11.60;50.70
47576;DHT22;33304;52.456;13.328;2023-04-24T02:21:20;11.70;50.60
47576;DHT22;33304;52.456;13.328;2023-04-24T02:23:47;11.60;50.60
47576;DHT22;33304;52.456;13.328;2023-04-24T02:26:14;11.60;50.60
47576;DHT22;33304;52.456;13.328;2023-04-24T02:28:43;11.60;50.70
47576;DHT22;33304;52.456;13.328;2023-04-24T02:31:12;11.60;51.10
47576;DHT22;33304;52.456;13.328;2023-04-24T02:33:40;11.80;50.90
47576;DHT22;33304;52.456;13.328;2023-04-24T02:36:07;11.70;50.10
47576;DHT22;33304;52.456;13.328;2023-04-24T02:38:34;11.70;51.20
47576;DHT22;33304;52.456;13.328;2023-04-24T02:41:02;11.70;50.90
47576;DHT22;33304;52.456;13.328;2023-04-24T02:43:32;11.60;51.30
47576;DHT22;33304;52.456;13.328;2023-04-24T02:45:59;11.60;52.10
47576;DHT22;33304;52.456;13.328;2023-04-24T02:48:27;11.60;51.40
47576;DHT22;33304;52.456;13.328;2023-04-24T02:50:54;11.60;51.80
47576;DHT22;33304;52.456;13.328;2023-04-24T02:53:23;11.60;51.80
47576;DHT22;33304;52.456;13.328;2023-04-24T02:55:50;11.80;51.30
47576;DHT22;33304;52.456;13.328;2023-04-24T02:58:17;11.70;51.40
47576;DHT22;33304;52.456;13.328;2023-04-24T03:00:46;11.70;51.90
47576;DHT22;33304;52.456;13.328;2023-04-24T03:03:13;11.70;51.90
47576;DHT22;33304;52.456;13.328;2023-04-24T03:05:42;11.70;52.20
47576;DHT22;33304;52.456;13.328;2023-04-24T03:08:09;11.70;52.10
47576;DHT22;33304;52.456;13.328;2023-04-24T03:10:37;11.70;51.80
47576;DHT22;33304;52.456;13.328;2023-04-24T03:13:04;11.70;52.20
47576;DHT22;33304;52.456;13.328;2023-04-24T03:15:31;11.80;51.50
47576;DHT22;33304;52.456;13.328;2023-04-24T03:17:58;12.00;50.80
47576;DHT22;33304;52.456;13.328;2023-04-24T03:20:26;11.90;50.00
47576;DHT22;33304;52.456;13.328;2023-04-24T03:22:57;11.80;50.60
47576;DHT22;33304;52.456;13.328;2023-04-24T03:25:25;11.90;51.20
47576;DHT22;33304;52.456;13.328;2023-04-24T03:27:52;11.90;51.10
47576;DHT22;33304;52.456;13.328;2023-04-24T03:30:30;11.90;50.60
47576;DHT22;33304;52.456;13.328;2023-04-24T03:32:59;11.80;51.00
47576;DHT22;33304;52.456;13.328;2023-04-24T03:35:29;11.80;51.20
47576;DHT22;33304;52.456;13.328;2023-04-24T03:38:02;11.90;51.20
47576;DHT22;33304;52.456;13.328;2023-04-24T03:40:49;11.90;50.90
47576;DHT22;33304;52.456;13.328;2023-04-24T03:43:32;11.90;50.60
47576;DHT22;33304;52.456;13.328;2023-04-24T03:46:01;11.80;50.60
47576;DHT22;33304;52.456;13.328;2023-04-24T03:48:30;11.90;50.90
47576;DHT22;33304;52.456;13.328;2023-04-24T03:50:57;12.10;50.40
47576;DHT22;33304;52.456;13.328;2023-04-24T03:53:26;12.00;50.20
47576;DHT22;33304;52.456;13.328;2023-04-24T03:55:54;12.00;50.00
47576;DHT22;33304;52.456;13.328;2023-04-24T03:58:22;12.10;50.30
47576;DHT22;33304;52.456;13.328;2023-04-24T04:00:50;11.90;50.10
47576;DHT22;33304;52.456;13.328;2023-04-24T04:03:37;11.90;50.60
47576;DHT22;33304;52.456;13.328;2023-04-24T04:06:05;11.90;50.70
47576;DHT22;33304;52.456;13.328;2023-04-24T04:08:33;11.90;51.40
47576;DHT22;33304;52.456;13.328;2023-04-24T04:11:00;11.90;51.40
47576;DHT22;33304;52.456;13.328;2023-04-24T04:13:28;11.90;50.90
47576;DHT22;33304;52.456;13.328;2023-04-24T04:15:56;12.00;50.60
47576;DHT22;33304;52.456;13.328;2023-04-24T04:18:23;12.00;50.60
47576;DHT22;33304;52.456;13.328;2023-04-24T04:20:50;12.00;50.60
47576;DHT22;33304;52.456;13.328;2023-04-24T04:23:17;12.10;50.50
47576;DHT22;33304;52.456;13.328;2023-04-24T04:26:24;12.00;50.20
47576;DHT22;33304;52.456;13.328;2023-04-24T04:29:07;12.10;50.30
47576;DHT22;33304;52.456;13.328;2023-04-24T04:31:40;12.00;50.20
47576;DHT22;33304;52.456;13.328;2023-04-24T04:34:11;12.10;50.50
47576;DHT22;33304;52.456;13.328;2023-04-24T04:36:38;12.10;49.70
47576;DHT22;33304;52.456;13.328;2023-04-24T04:39:23;12.00;50.40
47576;DHT22;33304;52.456;13.328;2023-04-24T04:41:59;12.20;49.60
47576;DHT22;33304;52.456;13.328;2023-04-24T04:44:33;12.20;49.30
47576;DHT22;33304;52.456;13.328;2023-04-24T04:47:02;12.30;48.50
47576;DHT22;33304;52.456;13.328;2023-04-24T04:49:32;12.20;48.60
47576;DHT22;33304;52.456;13.328;2023-04-24T04:52:00;12.20;48.80
47576;DHT22;33304;52.456;13.328;2023-04-24T04:54:28;12.30;48.40
47576;DHT22;33304;52.456;13.328;2023-04-24T04:56:56;12.40;47.70
47576;DHT22;33304;52.456;13.328;2023-04-24T04:59:25;12.40;47.50
47576;DHT22;33304;52.456;13.328;2023-04-24T05:01:59;12.30;47.50
47576;DHT22;33304;52.456;13.328;2023-04-24T05:04:26;12.20;47.80
47576;DHT22;33304;52.456;13.328;2023-04-24T05:06:53;12.30;47.30
47576;DHT22;33304;52.456;13.328;2023-04-24T05:09:22;12.40;46.40
47576;DHT22;33304;52.456;13.328;2023-04-24T05:11:55;12.30;46.30
47576;DHT22;33304;52.456;13.328;2023-04-24T05:14:25;12.30;47.20
47576;DHT22;33304;52.456;13.328;2023-04-24T05:16:52;12.20;46.60
47576;DHT22;33304;52.456;13.328;2023-04-24T05:19:21;12.30;46.90
47576;DHT22;33304;52.456;13.328;2023-04-24T05:21:48;12.40;45.40
47576;DHT22;33304;52.456;13.328;2023-04-24T05:24:16;12.40;45.40
47576;DHT22;33304;52.456;13.328;2023-04-24T05:27:01;12.30;45.30
47576;DHT22;33304;52.456;13.328;2023-04-24T05:29:36;12.40;45.40
47576;DHT22;33304;52.456;13.328;2023-04-24T05:32:04;12.50;45.40
47576;DHT22;33304;52.456;13.328;2023-04-24T05:34:32;12.50;45.40
47576;DHT22;33304;52.456;13.328;2023-04-24T05:36:59;12.50;45.40
47576;DHT22;33304;52.456;13.328;2023-04-24T05:39:26;12.40;45.40
47576;DHT22;33304;52.456;13.328;2023-04-24T05:41:54;12.50;45.40
47576;DHT22;33304;52.456;13.328;2023-04-24T05:44:23;12.50;45.40
47576;DHT22;33304;52.456;13.328;2023-04-24T05:46:53;12.60;44.80
47576;DHT22;33304;52.456;13.328;2023-04-24T05:49:21;12.70;43.60
47576;DHT22;33304;52.456;13.328;2023-04-24T05:51:48;12.70;43.50
47576;DHT22;33304;52.456;13.328;2023-04-24T05:54:17;12.80;43.10
47576;DHT22;33304;52.456;13.328;2023-04-24T05:56:44;12.80;42.70
47576;DHT22;33304;52.456;13.328;2023-04-24T05:59:15;12.70;42.60
47576;DHT22;33304;52.456;13.328;2023-04-24T06:01:42;12.70;43.10
47576;DHT22;33304;52.456;13.328;2023-04-24T06:04:16;12.90;42.10
47576;DHT22;33304;52.456;13.328;2023-04-24T06:06:43;12.80;41.90
47576;DHT22;33304;52.456;13.328;2023-04-24T06:09:11;13.00;41.40
47576;DHT22;33304;52.456;13.328;2023-04-24T06:11:39;12.90;40.10
47576;DHT22;33304;52.456;13.328;2023-04-24T06:14:08;13.00;40.20
47576;DHT22;33304;52.456;13.328;2023-04-24T06:16:40;13.10;39.00
47576;DHT22;33304;52.456;13.328;2023-04-24T06:19:21;13.20;39.20
47576;DHT22;33304;52.456;13.328;2023-04-24T06:21:48;13.20;38.80
47576;DHT22;33304;52.456;13.328;2023-04-24T06:24:15;13.40;38.90
47576;DHT22;33304;52.456;13.328;2023-04-24T06:26:42;13.30;38.40
47576;DHT22;33304;52.456;13.328;2023-04-24T06:29:10;13.40;37.30
47576;DHT22;33304;52.456;13.328;2023-04-24T06:31:37;13.70;37.20
47576;DHT22;33304;52.456;13.328;2023-04-24T06:34:04;13.70;34.90
47576;DHT22;33304;52.456;13.328;2023-04-24T06:36:33;13.70;34.90
47576;DHT22;33304;52.456;13.328;2023-04-24T06:39:01;14.00;34.00
47576;DHT22;33304;52.456;13.328;2023-04-24T06:41:29;14.30;32.90
47576;DHT22;33304;52.456;13.328;2023-04-24T06:43:56;14.70;31.10
47576;DHT22;33304;52.456;13.328;2023-04-24T06:46:23;14.70;29.20
47576;DHT22;33304;52.456;13.328;2023-04-24T06:48:52;14.80;30.00
47576;DHT22;33304;52.456;13.328;2023-04-24T06:51:22;14.80;29.30
47576;DHT22;33304;52.456;13.328;2023-04-24T06:53:51;14.70;29.30
47576;DHT22;33304;52.456;13.328;2023-04-24T06:56:18;14.70;29.00
47576;DHT22;33304;52.456;13.328;2023-04-24T06:58:46;14.80;28.40
47576;DHT22;33304;52.456;13.328;2023-04-24T07:01:13;14.70;28.10
47576;DHT22;33304;52.456;13.328;2023-04-24T07:03:40;14.70;27.80
47576;DHT22;33304;52.456;13.328;2023-04-24T07:06:07;14.70;28.20
47576;DHT22;33304;52.456;13.328;2023-04-24T07:08:36;14.70;28.20
47576;DHT22;33304;52.456;13.328;2023-04-24T07:11:04;14.80;27.30
47576;DHT22;33304;52.456;13.328;2023-04-24T07:13:31;14.80;25.60
47576;DHT22;33304;52.456;13.328;2023-04-24T07:16:01;14.90;26.40
47576;DHT22;33304;52.456;13.328;2023-04-24T07:18:28;15.20;25.60
47576;DHT22;33304;52.456;13.328;2023-04-24T07:20:55;15.20;25.60
47576;DHT22;33304;52.456;13.328;2023-04-24T07:23:22;15.20;25.50
47576;DHT22;33304;52.456;13.328;2023-04-24T07:25:50;15.30;22.90
47576;DHT22;33304;52.456;13.328;2023-04-24T07:28:18;15.20;23.50
47576;DHT22;33304;52.456;13.328;2023-04-24T07:30:45;15.20;22.90
47576;DHT22;33304;52.456;13.328;2023-04-24T07:33:12;15.10;21.70
47576;DHT22;33304;52.456;13.328;2023-04-24T07:35:39;15.20;20.90
47576;DHT22;33304;52.456;13.328;2023-04-24T07:38:06;15.20;21.70
47576;DHT22;33304;52.456;13.328;2023-04-24T07:40:34;15.30;22.40
47576;DHT22;33304;52.456;13.328;2023-04-24T07:43:01;15.40;19.30
47576;DHT22;33304;52.456;13.328;2023-04-24T07:45:29;15.60;19.90
47576;DHT22;33304;52.456;13.328;2023-04-24T07:47:57;15.70;17.40
47576;DHT22;33304;52.456;13.328;2023-04-24T07:50:24;15.50;18.60
47576;DHT22;33304;52.456;13.328;2023-04-24T07:52:51;15.80;20.10
47576;DHT22;33304;52.456;13.328;2023-04-24T07:55:18;15.90;21.80
47576;DHT22;33304;52.456;13.328;2023-04-24T07:57:45;15.90;21.40
47576;DHT22;33304;52.456;13.328;2023-04-24T08:00:13;15.90;21.40
47576;DHT22;33304;52.456;13.328;2023-04-24T08:02:42;15.90;20.50
47576;DHT22;33304;52.456;13.328;2023-04-24T08:05:09;16.10;19.70
47576;DHT22;33304;52.456;13.328;2023-04-24T08:07:36;16.30;20.00
47576;DHT22;33304;52.456;13.328;2023-04-24T08:10:04;16.30;20.20
47576;DHT22;33304;52.456;13.328;2023-04-24T08:12:31;16.20;21.20
47576;DHT22;33304;52.456;13.328;2023-04-24T08:14:58;16.40;18.50
47576;DHT22;33304;52.456;13.328;2023-04-24T08:17:25;16.40;18.50
47576;DHT22;33304;52.456;13.328;2023-04-24T08:19:54;16.50;16.90
47576;DHT22;33304;52.456;13.328;2023-04-24T08:22:27;16.50;16.90
47576;DHT22;33304;52.456;13.328;2023-04-24T08:24:54;16.50;16.90
47576;DHT22;33304;52.456;13.328;2023-04-24T08:27:21;16.50;17.10
47576;DHT22;33304;52.456;13.328;2023-04-24T08:29:49;16.50;16.70
47576;DHT22;33304;52.456;13.328;2023-04-24T08:32:16;16.70;17.00
47576;DHT22;33304;52.456;13.328;2023-04-24T08:34:44;17.00;17.20
47576;DHT22;33304;52.456;13.328;2023-04-24T08:37:13;17.00;14.80
47576;DHT22;33304;52.456;13.328;2023-04-24T08:39:40;17.00;15.20
47576;DHT22;33304;52.456;13.328;2023-04-24T08:42:08;16.70;13.90
47576;DHT22;33304;52.456;13.328;2023-04-24T08:44:36;16.70;15.10
47576;DHT22;33304;52.456;13.328;2023-04-24T08:47:03;16.80;15.10
47576;DHT22;33304;52.456;13.328;2023-04-24T08:49:31;17.00;15.20
47576;DHT22;33304;52.456;13.328;2023-04-24T08:51:58;17.10;14.40
47576;DHT22;33304;52.456;13.328;2023-04-24T08:54:28;17.00;15.40
47576;DHT22;33304;52.456;13.328;2023-04-24T08:56:58;16.40;16.80
47576;DHT22;33304;52.456;13.328;2023-04-24T08:59:28;16.50;16.90
47576;DHT22;33304;52.456;13.328;2023-04-24T09:01:56;16.40;16.80
47576;DHT22;33304;52.456;13.328;2023-04-24T09:04:24;16.60;17.00
47576;DHT22;33304;52.456;13.328;2023-04-24T09:06:51;16.50;16.90
47576;DHT22;33304;52.456;13.328;2023-04-24T09:09:21;16.60;16.90
47576;DHT22;33304;52.456;13.328;2023-04-24T09:11:51;16.80;17.10
47576;DHT22;33304;52.456;13.328;2023-04-24T09:14:21;16.80;17.10
47576;DHT22;33304;52.456;13.328;2023-04-24T09:16:49;16.60;17.50
47576;DHT22;33304;52.456;13.328;2023-04-24T09:19:17;16.20;19.70
47576;DHT22;33304;52.456;13.328;2023-04-24T09:21:46;16.10;19.50
47576;DHT22;33304;52.456;13.328;2023-04-24T09:24:15;16.20;19.70
47576;DHT22;33304;52.456;13.328;2023-04-24T09:26:44;16.30;19.40
47576;DHT22;33304;52.456;13.328;2023-04-24T09:29:16;16.60;18.40
47576;DHT22;33304;52.456;13.328;2023-04-24T09:31:44;16.80;18.30
47576;DHT22;33304;52.456;13.328;2023-04-24T09:34:11;16.50;18.70
47576;DHT22;33304;52.456;13.328;2023-04-24T09:36:41;16.30;19.30
47576;DHT22;33304;52.456;13.328;2023-04-24T09:39:10;16.20;18.90
47576;DHT22;33304;52.456;13.328;2023-04-24T09:41:44;16.10;19.30
47576;DHT22;33304;52.456;13.328;2023-04-24T09:44:13;16.20;18.70
47576;DHT22;33304;52.456;13.328;2023-04-24T09:46:42;16.40;17.80
47576;DHT22;33304;52.456;13.328;2023-04-24T09:49:14;16.50;18.00
47576;DHT22;33304;52.456;13.328;2023-04-24T09:51:42;16.60;17.00
47576;DHT22;33304;52.456;13.328;2023-04-24T09:54:17;16.50;16.90
47576;DHT22;33304;52.456;13.328;2023-04-24T09:56:46;16.30;16.80
47576;DHT22;33304;52.456;13.328;2023-04-24T09:59:14;16.30;18.00
47576;DHT22;33304;52.456;13.328;2023-04-24T10:01:43;16.60;18.40
47576;DHT22;33304;52.456;13.328;2023-04-24T10:04:18;16.50;17.10
47576;DHT22;33304;52.456;13.328;2023-04-24T10:06:47;16.80;17.10
47576;DHT22;33304;52.456;13.328;2023-04-24T10:09:16;17.00;17.30
47576;DHT22;33304;52.456;13.328;2023-04-24T10:11:44;17.10;16.00
47576;DHT22;33304;52.456;13.328;2023-04-24T10:14:12;16.80;17.10
47576;DHT22;33304;52.456;13.328;2023-04-24T10:16:41;16.80;17.10
47576;DHT22;33304;52.456;13.328;2023-04-24T10:19:09;16.90;17.20
47576;DHT22;33304;52.456;13.328;2023-04-24T10:21:40;16.90;16.90
47576;DHT22;33304;52.456;13.328;2023-04-24T10:24:12;17.00;16.20
47576;DHT22;33304;52.456;13.328;2023-04-24T10:26:40;17.00;15.90
47576;DHT22;33304;52.456;13.328;2023-04-24T10:29:08;16.70;17.00
47576;DHT22;33304;52.456;13.328;2023-04-24T10:31:38;16.60;17.00
47576;DHT22;33304;52.456;13.328;2023-04-24T10:34:07;16.30;16.80
47576;DHT22;33304;52.456;13.328;2023-04-24T10:36:39;16.50;16.90
47576;DHT22;33304;52.456;13.328;2023-04-24T10:39:11;16.30;16.80
47576;DHT22;33304;52.456;13.328;2023-04-24T10:41:38;16.30;16.80
47576;DHT22;33304;52.456;13.328;2023-04-24T10:44:06;16.20;16.70
47576;DHT22;33304;52.456;13.328;2023-04-24T10:46:33;16.20;16.70
47576;DHT22;33304;52.456;13.328;2023-04-24T10:49:04;16.00;16.50
47576;DHT22;33304;52.456;13.328;2023-04-24T10:51:47;15.90;17.60
47576;DHT22;33304;52.456;13.328;2023-04-24T10:54:26;16.10;18.00
47576;DHT22;33304;52.456;13.328;2023-04-24T10:56:55;16.10;18.70
47576;DHT22;33304;52.456;13.328;2023-04-24T10:59:41;15.70;19.30
47576;DHT22;33304;52.456;13.328;2023-04-24T11:02:08;16.20;18.50
47576;DHT22;33304;52.456;13.328;2023-04-24T11:04:35;16.60;17.30
47576;DHT22;33304;52.456;13.328;2023-04-24T11:07:04;17.30;16.40
47576;DHT22;33304;52.456;13.328;2023-04-24T11:09:32;17.60;15.50
47576;DHT22;33304;52.456;13.328;2023-04-24T11:12:05;17.40;15.00
47576;DHT22;33304;52.456;13.328;2023-04-24T11:14:59;17.10;14.90
47576;DHT22;33304;52.456;13.328;2023-04-24T11:17:29;17.10;16.10
47576;DHT22;33304;52.456;13.328;2023-04-24T11:20:01;17.50;15.60
47576;DHT22;33304;52.456;13.328;2023-04-24T11:22:33;17.70;14.10
47576;DHT22;33304;52.456;13.328;2023-04-24T11:25:01;17.40;13.90
47576;DHT22;33304;52.456;13.328;2023-04-24T11:27:31;16.80;16.20
47576;DHT22;33304;52.456;13.328;2023-04-24T11:30:00;16.80;16.00
47576;DHT22;33304;52.456;13.328;2023-04-24T11:32:30;17.30;17.50
47576;DHT22;33304;52.456;13.328;2023-04-24T11:34:59;17.50;17.60
47576;DHT22;33304;52.456;13.328;2023-04-24T11:37:28;17.00;19.10
47576;DHT22;33304;52.456;13.328;2023-04-24T11:39:58;16.50;20.10
47576;DHT22;33304;52.456;13.328;2023-04-24T11:42:25;16.40;20.10
47576;DHT22;33304;52.456;13.328;2023-04-24T11:44:53;16.60;20.20
47576;DHT22;33304;52.456;13.328;2023-04-24T11:47:28;16.60;20.10
47576;DHT22;33304;52.456;13.328;2023-04-24T11:49:55;16.50;20.10
47576;DHT22;33304;52.456;13.328;2023-04-24T11:52:22;16.30;20.90
47576;DHT22;33304;52.456;13.328;2023-04-24T11:54:50;16.40;21.20
47576;DHT22;33304;52.456;13.328;2023-04-24T11:57:20;16.60;21.90
47576;DHT22;33304;52.456;13.328;2023-04-24T11:59:48;16.70;21.10
47576;DHT22;33304;52.456;13.328;2023-04-24T12:02:22;16.70;20.60
47576;DHT22;33304;52.456;13.328;2023-04-24T12:04:50;16.60;19.80
47576;DHT22;33304;52.456;13.328;2023-04-24T12:07:17;16.40;19.30
47576;DHT22;33304;52.456;13.328;2023-04-24T12:09:44;16.50;19.60
47576;DHT22;33304;52.456;13.328;2023-04-24T12:12:12;16.60;20.10
47576;DHT22;33304;52.456;13.328;2023-04-24T12:14:47;17.30;17.50
47576;DHT22;33304;52.456;13.328;2023-04-24T12:17:15;17.90;15.70
47576;DHT22;33304;52.456;13.328;2023-04-24T12:19:46;18.30;15.20
47576;DHT22;33304;52.456;13.328;2023-04-24T12:22:14;18.20;12.20
47576;DHT22;33304;52.456;13.328;2023-04-24T12:25:00;18.20;9.90
47576;DHT22;33304;52.456;13.328;2023-04-24T12:27:30;18.20;6.20
47576;DHT22;33304;52.456;13.328;2023-04-24T12:30:01;18.10;5.60
47576;DHT22;33304;52.456;13.328;2023-04-24T12:32:29;17.80;5.30
47576;DHT22;33304;52.456;13.328;2023-04-24T12:34:57;17.90;5.30
47576;DHT22;33304;52.456;13.328;2023-04-24T12:37:25;17.90;4.90
47576;DHT22;33304;52.456;13.328;2023-04-24T12:40:03;17.70;3.40
47576;DHT22;33304;52.456;13.328;2023-04-24T12:42:32;18.00;2.50
47576;DHT22;33304;52.456;13.328;2023-04-24T12:45:02;18.70;1.10
47576;DHT22;33304;52.456;13.328;2023-04-24T12:47:30;18.80;1.00
47576;DHT22;33304;52.456;13.328;2023-04-24T12:49:58;18.80;1.00
47576;DHT22;33304;52.456;13.328;2023-04-24T12:52:26;18.50;1.00
47576;DHT22;33304;52.456;13.328;2023-04-24T12:54:54;18.10;1.10
47576;DHT22;33304;52.456;13.328;2023-04-24T12:57:23;18.10;1.00
47576;DHT22;33304;52.456;13.328;2023-04-24T12:59:52;19.00;1.00
47576;DHT22;33304;52.456;13.328;2023-04-24T13:02:20;18.90;1.00
47576;DHT22;33304;52.456;13.328;2023-04-24T13:04:49;18.50;1.00
47576;DHT22;33304;52.456;13.328;2023-04-24T13:07:16;18.50;1.00
47576;DHT22;33304;52.456;13.328;2023-04-24T13:09:44;19.20;1.00
47576;DHT22;33304;52.456;13.328;2023-04-24T13:12:11;19.90;1.00
47576;DHT22;33304;52.456;13.328;2023-04-24T13:14:39;20.20;1.00
47576;DHT22;33304;52.456;13.328;2023-04-24T13:17:06;20.60;1.00
47576;DHT22;33304;52.456;13.328;2023-04-24T13:19:41;20.20;1.00
47576;DHT22;33304;52.456;13.328;2023-04-24T13:22:10;19.00;1.00
47576;DHT22;33304;52.456;13.328;2023-04-24T13:24:38;18.40;1.00
47576;DHT22;33304;52.456;13.328;2023-04-24T13:27:07;18.80;1.00
47576;DHT22;33304;52.456;13.328;2023-04-24T13:29:34;19.10;1.00
47576;DHT22;33304;52.456;13.328;2023-04-24T13:32:01;18.90;1.00
47576;DHT22;33304;52.456;13.328;2023-04-24T13:34:28;18.70;1.00
47576;DHT22;33304;52.456;13.328;2023-04-24T13:36:57;19.10;1.00
47576;DHT22;33304;52.456;13.328;2023-04-24T13:39:25;18.70;1.00
47576;DHT22;33304;52.456;13.328;2023-04-24T13:41:53;18.30;1.00
47576;DHT22;33304;52.456;13.328;2023-04-24T13:44:21;18.40;1.00
47576;DHT22;33304;52.456;13.328;2023-04-24T13:46:50;19.10;1.00
47576;DHT22;33304;52.456;13.328;2023-04-24T13:49:17;19.40;1.00
47576;DHT22;33304;52.456;13.328;2023-04-24T13:51:48;19.00;1.00
47576;DHT22;33304;52.456;13.328;2023-04-24T13:54:19;20.00;1.00
47576;DHT22;33304;52.456;13.328;2023-04-24T13:56:46;19.40;1.00
47576;DHT22;33304;52.456;13.328;2023-04-24T13:59:13;18.50;1.00
47576;DHT22;33304;52.456;13.328;2023-04-24T14:01:41;18.30;1.00
47576;DHT22;33304;52.456;13.328;2023-04-24T14:04:08;18.30;1.00
47576;DHT22;33304;52.456;13.328;2023-04-24T14:06:35;18.50;1.00
47576;DHT22;33304;52.456;13.328;2023-04-24T14:09:02;19.30;1.00
47576;DHT22;33304;52.456;13.328;2023-04-24T14:11:31;19.00;1.00
47576;DHT22;33304;52.456;13.328;2023-04-24T14:13:58;18.70;1.00
47576;DHT22;33304;52.456;13.328;2023-04-24T14:16:28;19.30;1.00
47576;DHT22;33304;52.456;13.328;2023-04-24T14:18:56;18.80;1.00
47576;DHT22;33304;52.456;13.328;2023-04-24T14:21:23;18.70;1.00
47576;DHT22;33304;52.456;13.328;2023-04-24T14:23:50;18.60;1.00
47576;DHT22;33304;52.456;13.328;2023-04-24T14:26:17;19.00;1.00
47576;DHT22;33304;52.456;13.328;2023-04-24T14:28:45;19.10;1.00
47576;DHT22;33304;52.456;13.328;2023-04-24T14:31:12;18.30;1.00
47576;DHT22;33304;52.456;13.328;2023-04-24T14:33:40;17.90;1.00
47576;DHT22;33304;52.456;13.328;2023-04-24T14:36:07;18.00;1.00
47576;DHT22;33304;52.456;13.328;2023-04-24T14:38:34;18.90;1.00
47576;DHT22;33304;52.456;13.328;2023-04-24T14:41:04;19.60;1.00
47576;DHT22;33304;52.456;13.328;2023-04-24T14:43:35;19.80;1.00
47576;DHT22;33304;52.456;13.328;2023-04-24T14:46:04;20.10;1.00
47576;DHT22;33304;52.456;13.328;2023-04-24T14:48:31;19.70;1.00
47576;DHT22;33304;52.456;13.328;2023-04-24T14:50:58;18.80;1.00
47576;DHT22;33304;52.456;13.328;2023-04-24T14:53:26;19.00;1.00
47576;DHT22;33304;52.456;13.328;2023-04-24T14:55:53;19.00;1.00
47576;DHT22;33304;52.456;13.328;2023-04-24T14:58:20;19.00;1.00
47576;DHT22;33304;52.456;13.328;2023-04-24T15:00:48;18.10;1.00
47576;DHT22;33304;52.456;13.328;2023-04-24T15:03:19;18.20;1.00
47576;DHT22;33304;52.456;13.328;2023-04-24T15:05:47;18.30;1.00
47576;DHT22;33304;52.456;13.328;2023-04-24T15:08:14;18.60;1.00
47576;DHT22;33304;52.456;13.328;2023-04-24T15:10:41;19.00;1.00
47576;DHT22;33304;52.456;13.328;2023-04-24T15:13:09;18.90;1.00
47576;DHT22;33304;52.456;13.328;2023-04-24T15:15:36;18.10;1.00
47576;DHT22;33304;52.456;13.328;2023-04-24T15:18:04;18.10;1.00
47576;DHT22;33304;52.456;13.328;2023-04-24T15:20:33;17.90;1.00
47576;DHT22;33304;52.456;13.328;2023-04-24T15:23:00;17.80;1.00
47576;DHT22;33304;52.456;13.328;2023-04-24T15:25:28;17.50;1.00
47576;DHT22;33304;52.456;13.328;2023-04-24T15:27:55;17.20;1.00
47576;DHT22;33304;52.456;13.328;2023-04-24T15:30:22;17.30;1.00